Time;durP1;ratioP1;P1;durP2;ratioP2;P2;SDS_P1;SDS_P2;PMS_P1;PMS_P2;Temp;Humidity;BMP_temperature;BMP_pressure;BME280_temperature;BME280_humidity;BME280_pressure;Samples;Min_cycle;Max_cycle;Signal;HPM_P1;HPM_P2
2021/10/14 00:01:16;;;;;;;23.75;14.45;;;;;;;5.53;83.54;101185.59;1677803;83;25905;-79
2021/10/14 00:03:43;;;;;;;25.30;17.20;;;;;;;5.53;83.41;101189.58;1684309;82;27545;-79
2021/10/14 00:06:14;;;;;;;25.43;17.17;;;;;;;5.51;83.42;101186.70;1673287;83;25806;-80
2021/10/14 00:08:41;;;;;;;28.02;16.85;;;;;;;5.48;83.43;101184.68;1721422;81;25932;-79
2021/10/14 00:11:08;;;;;;;24.20;15.85;;;;;;;5.47;83.41;101184.31;1677542;83;26433;-79
2021/10/14 00:13:35;;;;;;;26.93;14.03;;;;;;;5.47;83.39;101180.33;1650682;83;25852;-79
2021/10/14 00:16:02;;;;;;;24.67;13.43;;;;;;;5.45;83.33;101178.30;1700958;82;28271;-80
2021/10/14 00:18:29;;;;;;;21.37;13.28;;;;;;;5.43;83.27;101180.78;1676794;83;25997;-79
2021/10/14 00:20:56;;;;;;;24.32;13.72;;;;;;;5.41;83.16;101188.87;1675027;83;25994;-79
2021/10/14 00:23:23;;;;;;;23.32;13.93;;;;;;;5.40;83.19;101186.36;1685306;82;26428;-79
2021/10/14 00:25:50;;;;;;;23.22;13.48;;;;;;;5.35;83.20;101184.11;1705004;82;26846;-79
2021/10/14 00:28:17;;;;;;;24.23;14.75;;;;;;;5.29;83.20;101185.16;1703255;82;28095;-79
2021/10/14 00:30:44;;;;;;;22.90;13.75;;;;;;;5.26;83.27;101188.92;1676881;83;26624;-79
2021/10/14 00:33:11;;;;;;;24.85;14.98;;;;;;;5.24;83.33;101190.03;1696709;83;25882;-79
2021/10/14 00:35:39;;;;;;;24.75;14.10;;;;;;;5.23;83.42;101183.91;1706002;83;25850;-80
2021/10/14 00:38:06;;;;;;;21.05;13.45;;;;;;;5.23;83.42;101183.91;1676812;83;25972;-79
2021/10/14 00:40:33;;;;;;;25.02;14.00;;;;;;;5.22;83.44;101184.87;1674292;83;27623;-79
2021/10/14 00:43:00;;;;;;;20.10;13.53;;;;;;;5.20;83.39;101186.83;1641492;83;26511;-79
2021/10/14 00:45:27;;;;;;;24.45;14.53;;;;;;;5.19;83.28;101193.13;1696441;83;25877;-79
2021/10/14 00:47:55;;;;;;;24.63;14.50;;;;;;;5.17;83.21;101188.45;1676169;83;25915;-79
2021/10/14 00:50:22;;;;;;;25.62;13.95;;;;;;;5.15;83.08;101190.88;1652915;83;25808;-79
2021/10/14 00:52:52;;;;;;;23.35;13.78;;;;;;;5.09;83.07;101188.78;1684401;83;28114;-79
2021/10/14 00:55:20;;;;;;;23.60;13.53;;;;;;;5.03;82.83;101195.46;1675731;83;26036;-79
2021/10/14 00:57:51;;;;;;;23.62;13.65;;;;;;;4.98;82.83;101188.89;1676735;83;25886;-79
2021/10/14 01:00:19;;;;;;;22.87;13.93;;;;;;;4.96;82.88;101198.30;1703518;83;26407;-79
2021/10/14 01:02:46;;;;;;;21.02;12.95;;;;;;;4.93;82.94;101191.11;1651955;83;25829;-79
2021/10/14 01:05:13;;;;;;;20.88;13.32;;;;;;;4.90;82.99;101190.89;1705497;83;27569;-79
2021/10/14 01:07:40;;;;;;;22.85;13.60;;;;;;;4.86;82.84;101191.29;1700588;82;25933;-79
2021/10/14 01:10:09;;;;;;;21.77;13.70;;;;;;;4.82;82.81;101185.42;1677946;83;25800;-79
2021/10/14 01:12:38;;;;;;;23.18;13.20;;;;;;;4.81;82.70;101182.91;1696698;83;25860;-79
2021/10/14 01:15:22;;;;;;;21.87;12.90;;;;;;;4.79;82.60;101183.54;1700136;82;25751;-79
2021/10/14 01:17:49;;;;;;;24.82;14.25;;;;;;;4.78;82.37;101184.02;1723920;82;27725;-79
2021/10/14 01:20:16;;;;;;;28.57;18.42;;;;;;;4.75;82.16;101180.81;1678738;83;25958;-79
2021/10/14 01:22:43;;;;;;;26.37;17.65;;;;;;;4.74;82.00;101183.09;1663502;83;25790;-79
2021/10/14 01:25:10;;;;;;;28.35;19.12;;;;;;;4.70;81.87;101185.19;1709692;83;26805;-79
2021/10/14 01:27:38;;;;;;;27.37;18.40;;;;;;;4.68;81.76;101176.53;1650412;83;25851;-79
2021/10/14 01:30:07;;;;;;;29.10;16.75;;;;;;;4.65;81.78;101181.61;1674849;83;28334;-79
2021/10/14 01:32:35;;;;;;;26.40;17.05;;;;;;;4.64;81.77;101188.39;1700675;83;26170;-79
2021/10/14 01:35:04;;;;;;;28.42;17.00;;;;;;;4.62;81.76;101181.86;1706069;79;25353;-79
2021/10/14 01:37:32;;;;;;;23.80;17.80;;;;;;;4.60;81.71;101189.60;1677633;83;25832;-79
2021/10/14 01:40:00;;;;;;;24.47;16.50;;;;;;;4.58;81.68;101188.42;1726197;81;25895;-79
2021/10/14 01:42:27;;;;;;;27.65;18.50;;;;;;;4.56;81.68;101190.37;1653424;83;27429;-78
2021/10/14 01:44:54;;;;;;;28.57;17.77;;;;;;;4.52;81.53;101187.63;1725811;81;25753;-79
2021/10/14 01:47:21;;;;;;;29.18;18.32;;;;;;;4.50;81.61;101190.06;1676968;83;25778;-79
2021/10/14 01:49:48;;;;;;;26.95;16.90;;;;;;;4.48;81.46;101194.18;1675362;82;25937;-79
2021/10/14 01:52:15;;;;;;;24.72;15.03;;;;;;;4.44;81.49;101194.58;1700899;82;25919;-79
2021/10/14 01:54:42;;;;;;;30.62;16.75;;;;;;;4.39;81.61;101194.97;1674127;83;27638;-79
2021/10/14 01:57:09;;;;;;;30.80;21.57;;;;;;;4.37;81.74;101196.92;1677401;83;25825;-79
2021/10/14 01:59:36;;;;;;;27.00;16.35;;;;;;;4.34;81.65;101202.47;1689869;82;25992;-79
2021/10/14 02:02:03;;;;;;;26.93;16.37;;;;;;;4.29;81.55;101207.83;1674008;83;26372;-79
2021/10/14 02:04:30;;;;;;;28.57;16.35;;;;;;;4.23;81.63;101210.53;1677388;83;25789;-79
2021/10/14 02:06:57;;;;;;;24.72;14.58;;;;;;;4.19;81.56;101199.81;1677640;83;28681;-79
2021/10/14 02:09:24;;;;;;;32.08;18.07;;;;;;;4.18;81.46;101202.60;1693546;83;25978;-79
2021/10/14 02:11:51;;;;;;;26.35;18.05;;;;;;;4.16;81.59;101206.72;1705545;82;25403;-79
2021/10/14 02:14:19;;;;;;;26.00;17.23;;;;;;;4.16;81.55;101209.84;1700475;83;26660;-79
2021/10/14 02:16:46;;;;;;;28.92;17.00;;;;;;;4.12;81.23;101213.26;1672767;82;25917;-79
2021/10/14 02:19:13;;;;;;;23.73;14.80;;;;;;;4.10;81.11;101218.33;1697943;83;27471;-79
2021/10/14 02:21:40;;;;;;;24.20;15.43;;;;;;;4.08;81.11;101217.62;1631117;83;25872;-79
2021/10/14 02:24:07;;;;;;;26.40;14.70;;;;;;;4.00;81.03;101211.62;1673194;83;25422;-79
2021/10/14 02:26:34;;;;;;;26.35;14.98;;;;;;;3.93;81.20;101212.63;1699700;83;25936;-80
2021/10/14 02:29:01;;;;;;;27.07;16.35;;;;;;;3.91;81.39;101215.08;1677145;83;25932;-79
2021/10/14 02:31:28;;;;;;;29.95;15.43;;;;;;;3.88;81.50;101216.17;1649414;83;27492;-79
2021/10/14 02:33:55;;;;;;;23.73;14.50;;;;;;;3.87;81.54;101214.98;1697581;83;25834;-79
2021/10/14 02:36:22;;;;;;;24.85;15.13;;;;;;;3.84;81.20;101220.05;1676527;83;25807;-79
2021/10/14 02:38:49;;;;;;;25.23;15.10;;;;;;;3.78;80.95;101223.22;1673478;83;26597;-79
2021/10/14 02:41:16;;;;;;;27.20;15.80;;;;;;;3.74;80.91;101227.06;1700726;83;25896;-79
2021/10/14 02:43:43;;;;;;;27.80;15.35;;;;;;;3.74;80.82;101224.92;1699467;82;28739;-79
2021/10/14 02:46:10;;;;;;;23.92;14.25;;;;;;;3.72;80.89;101225.03;1650962;83;26633;-79
2021/10/14 02:48:38;;;;;;;27.02;15.75;;;;;;;3.70;80.71;101225.64;1654420;83;25385;-79
2021/10/14 02:51:05;;;;;;;23.77;14.13;;;;;;;3.68;80.61;101225.41;1641569;84;26366;-79
2021/10/14 02:53:32;;;;;;;22.45;14.05;;;;;;;3.69;81.04;101231.92;1688360;82;25776;-79
2021/10/14 02:55:59;;;;;;;24.87;14.05;;;;;;;3.65;80.41;101233.63;1716367;82;27429;-78
2021/10/14 02:58:26;;;;;;;23.40;14.15;;;;;;;3.60;80.25;101235.80;1690498;82;25922;-79
2021/10/14 03:00:53;;;;;;;25.10;14.63;;;;;;;3.56;80.04;101235.70;1697358;83;25964;-79
2021/10/14 03:03:20;;;;;;;23.52;13.60;;;;;;;3.51;80.03;101233.43;1699946;83;26442;-79
2021/10/14 03:05:47;;;;;;;22.02;13.95;;;;;;;3.48;79.97;101235.50;1725758;81;26125;-79
2021/10/14 03:08:14;;;;;;;24.05;14.40;;;;;;;3.44;79.90;101238.89;1676692;83;27557;-79
2021/10/14 03:10:41;;;;;;;26.05;14.15;;;;;;;3.44;79.98;101244.19;1664216;84;25865;-79
2021/10/14 03:13:08;;;;;;;24.80;14.13;;;;;;;3.40;79.76;101238.77;1725469;82;26557;-79
2021/10/14 03:15:35;;;;;;;22.13;13.78;;;;;;;3.36;79.62;101241.30;1704341;82;25800;-78
2021/10/14 03:18:02;;;;;;;24.80;14.70;;;;;;;3.33;79.52;101249.99;1629056;82;25951;-79
2021/10/14 03:20:30;;;;;;;26.77;15.40;;;;;;;3.29;79.50;101252.05;1653942;82;28026;-79
2021/10/14 03:22:57;;;;;;;25.60;14.47;;;;;;;3.25;79.42;101249.27;1725953;80;25669;-79
2021/10/14 03:25:24;;;;;;;25.25;15.05;;;;;;;3.24;79.34;101257.34;1699636;83;25738;-79
2021/10/14 03:27:51;;;;;;;25.32;15.58;;;;;;;3.19;79.15;101248.95;1652794;83;25801;-79
2021/10/14 03:30:18;;;;;;;30.72;17.00;;;;;;;3.14;79.07;101256.76;1701707;82;25763;-78
2021/10/14 03:32:45;;;;;;;24.45;15.35;;;;;;;3.10;79.04;101254.00;1659720;84;28329;-79
2021/10/14 03:35:12;;;;;;;25.30;16.35;;;;;;;3.07;78.97;101252.09;1725068;81;25870;-79
2021/10/14 03:37:39;;;;;;;26.65;14.60;;;;;;;3.03;78.84;101259.45;1662693;83;25836;-79
2021/10/14 03:40:07;;;;;;;24.80;16.05;;;;;;;3.00;79.10;101254.39;1665297;83;26355;-78
2021/10/14 03:42:34;;;;;;;23.45;15.40;;;;;;;3.02;79.49;101259.55;1698881;83;25885;-79
2021/10/14 03:45:01;;;;;;;23.73;15.48;;;;;;;3.00;79.75;101256.19;1696874;83;27705;-78
2021/10/14 03:47:28;;;;;;;23.65;14.05;;;;;;;3.01;79.68;101266.67;1676708;82;25756;-79
2021/10/14 03:49:55;;;;;;;22.70;14.53;;;;;;;2.97;78.93;101269.17;1652145;82;25901;-79
2021/10/14 03:52:22;;;;;;;20.65;14.05;;;;;;;2.89;78.50;101270.74;1682528;83;25994;-79
2021/10/14 03:54:49;;;;;;;18.82;13.70;;;;;;;2.80;78.44;101264.37;1727678;81;25315;-78
2021/10/14 03:57:16;;;;;;;22.20;14.80;;;;;;;2.76;78.42;101264.25;1685595;83;28306;-79
2021/10/14 03:59:43;;;;;;;25.37;13.70;;;;;;;2.70;78.37;101268.71;1665940;84;26683;-79
2021/10/14 04:02:10;;;;;;;20.60;13.48;;;;;;;2.66;78.36;101269.07;1725020;81;26497;-79
2021/10/14 04:04:37;;;;;;;23.35;13.53;;;;;;;2.62;78.60;101263.66;1677129;83;25995;-79
2021/10/14 04:07:04;;;;;;;21.97;13.38;;;;;;;2.57;78.49;101264.48;1680696;82;25875;-78
2021/10/14 04:09:31;;;;;;;25.27;14.68;;;;;;;2.53;78.37;101265.22;1700608;82;27637;-79
2021/10/14 04:11:58;;;;;;;22.32;13.03;;;;;;;2.48;78.30;101265.23;1660475;84;25918;-79
2021/10/14 04:14:25;;;;;;;25.10;14.80;;;;;;;2.43;78.22;101273.98;1705897;83;25943;-79
2021/10/14 04:16:52;;;;;;;22.45;14.30;;;;;;;2.39;78.27;101273.86;1652591;81;25779;-78
2021/10/14 04:19:19;;;;;;;24.20;12.70;;;;;;;2.32;78.40;101272.16;1660235;84;26575;-79
2021/10/14 04:21:48;;;;;;;24.18;14.55;;;;;;;2.27;78.41;101273.84;1725345;82;27598;-79
2021/10/14 04:24:16;;;;;;;24.00;14.45;;;;;;;2.22;78.42;101272.02;1699656;83;25875;-79
2021/10/14 04:26:43;;;;;;;22.58;14.07;;;;;;;2.19;78.63;101267.45;1652143;83;25885;-79
2021/10/14 04:29:10;;;;;;;24.75;13.98;;;;;;;2.18;78.69;101263.96;1672037;83;26265;-78
2021/10/14 04:31:37;;;;;;;23.05;13.35;;;;;;;2.17;78.75;101266.26;1677096;83;25858;-78
2021/10/14 04:34:08;;;;;;;24.70;14.35;;;;;;;2.17;78.76;101266.73;1696528;82;27518;-78
2021/10/14 04:36:39;;;;;;;25.72;14.68;;;;;;;2.16;78.81;101268.52;1690312;82;26056;-79
2021/10/14 04:39:06;;;;;;;;;;;;;;;2.15;78.59;101269.97;1680076;83;25923;-78
2021/10/14 04:41:34;;;;;;;25.02;15.15;;;;;;;2.11;78.51;101269.84;1697587;83;25899;-79
2021/10/14 04:44:02;;;;;;;24.85;14.93;;;;;;;2.07;78.83;101280.28;1669470;83;25832;-78
2021/10/14 04:46:29;;;;;;;27.70;16.87;;;;;;;2.06;79.02;101269.34;1645681;83;28231;-79
2021/10/14 04:48:56;;;;;;;31.30;18.67;;;;;;;2.06;79.62;101272.83;1700826;83;26480;-78
2021/10/14 04:51:23;;;;;;;38.28;19.35;;;;;;;2.09;80.05;101270.44;1699362;83;25918;-78
2021/10/14 04:53:50;;;;;;;30.92;17.20;;;;;;;2.15;80.39;101268.18;1725650;81;26645;-78
2021/10/14 04:56:17;;;;;;;31.77;18.30;;;;;;;2.17;80.70;101262.30;1663177;84;25892;-79
2021/10/14 04:58:44;;;;;;;35.52;19.80;;;;;;;2.22;81.00;101265.41;1642014;83;27617;-79
2021/10/14 05:01:11;;;;;;;33.45;19.98;;;;;;;2.27;81.22;101268.55;1706031;83;25843;-78
2021/10/14 05:03:38;;;;;;;35.80;19.52;;;;;;;2.29;81.53;101265.31;1712255;82;25979;-79
2021/10/14 05:06:05;;;;;;;34.18;20.00;;;;;;;2.31;81.67;101263.39;1651036;84;26571;-79
2021/10/14 05:08:32;;;;;;;33.00;20.05;;;;;;;2.36;81.95;101263.04;1681303;83;25750;-79
2021/10/14 05:10:59;;;;;;;37.25;19.45;;;;;;;2.40;82.01;101276.38;1706295;83;27506;-80
2021/10/14 05:13:26;;;;;;;40.17;21.62;;;;;;;2.43;82.12;101270.02;1722541;82;25800;-78
2021/10/14 05:15:53;;;;;;;41.13;21.20;;;;;;;2.45;82.11;101269.41;1656062;83;26590;-79
2021/10/14 05:18:20;;;;;;;48.05;23.67;;;;;;;2.47;82.08;101268.34;1672109;83;25979;-79
2021/10/14 05:20:47;;;;;;;40.33;20.25;;;;;;;2.50;82.15;101275.20;1697612;83;25729;-78
2021/10/14 05:23:14;;;;;;;51.50;20.40;;;;;;;2.49;82.08;101280.12;1725941;81;27283;-79
2021/10/14 05:25:41;;;;;;;38.42;18.55;;;;;;;2.51;82.12;101272.91;1641735;84;26008;-78
2021/10/14 05:28:08;;;;;;;44.80;19.27;;;;;;;2.51;82.16;101283.01;1685446;84;25836;-78
2021/10/14 05:30:35;;;;;;;46.02;19.60;;;;;;;2.52;82.24;101278.56;1677902;83;26331;-78
2021/10/14 05:33:02;;;;;;;46.50;20.32;;;;;;;2.51;82.30;101272.43;1725941;81;25970;-78
2021/10/14 05:35:29;;;;;;;33.80;20.35;;;;;;;2.53;82.34;101275.80;1655165;83;27594;-78
2021/10/14 05:37:56;;;;;;;34.25;20.95;;;;;;;2.54;82.39;101277.50;1684026;82;25571;-78
2021/10/14 05:40:23;;;;;;;41.68;21.12;;;;;;;2.55;82.42;101272.55;1692923;84;25874;-78
2021/10/14 05:42:50;;;;;;;42.25;21.40;;;;;;;2.57;82.45;101278.56;1725207;82;25794;-79
2021/10/14 05:45:17;;;;;;;51.68;26.90;;;;;;;2.60;82.43;101274.37;1661992;84;26333;-79
2021/10/14 05:47:44;;;;;;;40.33;22.77;;;;;;;2.60;82.39;101274.37;1658735;83;27580;-79
2021/10/14 05:50:11;;;;;;;55.63;21.33;;;;;;;2.64;82.58;101273.16;1706211;83;25884;-79
2021/10/14 05:52:38;;;;;;;32.45;19.07;;;;;;;2.68;82.76;101273.28;1726020;81;25799;-78
2021/10/14 05:55:06;;;;;;;36.30;20.62;;;;;;;2.69;82.85;101269.69;1665575;83;25847;-79
2021/10/14 05:57:33;;;;;;;44.63;21.00;;;;;;;2.71;82.95;101276.17;1651119;83;25872;-79
2021/10/14 06:00:00;;;;;;;60.00;21.75;;;;;;;2.72;82.97;101277.37;1722060;81;27546;-79
2021/10/14 06:02:27;;;;;;;41.95;19.70;;;;;;;2.73;82.98;101272.45;1677149;83;25904;-79
2021/10/14 06:04:54;;;;;;;62.00;21.82;;;;;;;2.77;83.15;101271.72;1674561;83;26570;-79
2021/10/14 06:07:22;;;;;;;46.35;21.52;;;;;;;2.79;83.18;101272.44;1677238;83;25917;-78
2021/10/14 06:09:49;;;;;;;40.63;20.75;;;;;;;2.80;83.21;101270.17;1705878;83;25830;-79
2021/10/14 06:12:16;;;;;;;76.05;37.63;;;;;;;2.85;83.42;101270.63;1725924;81;27542;-79
2021/10/14 06:14:43;;;;;;;64.45;29.23;;;;;;;2.88;83.53;101275.69;1659536;83;25964;-79
2021/10/14 06:17:11;;;;;;;87.05;22.90;;;;;;;2.88;83.58;101276.54;1682523;83;36372;-79
2021/10/14 06:19:39;;;;;;;48.35;22.17;;;;;;;2.88;83.53;101278.34;1682479;83;26600;-79
2021/10/14 06:22:06;;;;;;;56.83;20.65;;;;;;;2.91;83.69;101280.25;1636733;84;25871;-79
2021/10/14 06:24:33;;;;;;;55.98;20.75;;;;;;;2.94;83.78;101284.46;1688534;84;27515;-79
2021/10/14 06:27:00;;;;;;;49.75;20.35;;;;;;;2.95;83.79;101285.66;1684229;84;25837;-79
2021/10/14 06:29:27;;;;;;;38.58;22.15;;;;;;;2.96;83.86;101277.24;1701199;83;26449;-79
2021/10/14 06:31:54;;;;;;;39.73;20.97;;;;;;;2.99;84.04;101274.37;1660936;83;26693;-80
2021/10/14 06:34:21;;;;;;;39.80;21.02;;;;;;;3.03;84.12;101278.45;1683044;83;25797;-79
2021/10/14 06:36:48;;;;;;;38.50;22.13;;;;;;;3.08;84.21;101274.93;1701467;82;27525;-80
2021/10/14 06:39:15;;;;;;;45.80;23.47;;;;;;;3.15;84.44;101278.78;1677034;83;26014;-80
2021/10/14 06:41:43;;;;;;;50.78;23.70;;;;;;;3.21;84.62;101275.64;1651353;83;25885;-80
2021/10/14 06:44:11;;;;;;;43.00;23.70;;;;;;;3.26;84.67;101278.77;1705934;83;26545;-80
2021/10/14 06:46:39;;;;;;;64.20;24.75;;;;;;;3.31;84.65;101270.45;1653443;83;25868;-80
2021/10/14 06:49:06;;;;;;;47.93;26.80;;;;;;;3.32;84.67;101278.74;1653096;83;27668;-79
2021/10/14 06:51:33;;;;;;;53.87;27.58;;;;;;;3.37;84.76;101278.75;1701007;83;25875;-79
2021/10/14 06:54:00;;;;;;;49.27;26.05;;;;;;;3.42;84.79;101275.22;1679283;83;25929;-80
2021/10/14 06:56:27;;;;;;;43.60;24.60;;;;;;;3.48;85.13;101280.05;1695391;83;26556;-80
2021/10/14 06:58:55;;;;;;;51.40;27.52;;;;;;;3.55;85.12;101271.13;1661804;83;25900;-80
2021/10/14 07:01:22;;;;;;;44.30;26.68;;;;;;;3.59;85.29;101273.36;1672682;83;28192;-79
2021/10/14 07:03:49;;;;;;;46.40;28.32;;;;;;;3.63;85.43;101268.20;1709834;83;25889;-80
2021/10/14 07:06:16;;;;;;;47.20;28.17;;;;;;;3.70;85.60;101273.84;1725135;82;26006;-80
2021/10/14 07:08:42;;;;;;;40.08;24.23;;;;;;;3.77;85.63;101280.29;1683401;82;25900;-79
2021/10/14 07:11:09;;;;;;;34.30;21.90;;;;;;;3.84;85.96;101281.47;1701157;83;26033;-80
2021/10/14 07:13:38;;;;;;;34.23;21.23;;;;;;;3.93;86.54;101281.53;1705737;83;27578;-80
2021/10/14 07:16:05;;;;;;;38.90;21.62;;;;;;;4.04;86.96;101278.02;1729598;81;25869;-79
2021/10/14 07:18:32;;;;;;;33.18;19.32;;;;;;;4.15;87.29;101283.23;1701392;83;26255;-80
2021/10/14 07:21:01;;;;;;;29.90;19.80;;;;;;;4.26;87.66;101283.66;1650210;83;26403;-80
2021/10/14 07:23:29;;;;;;;31.80;20.00;;;;;;;4.36;87.79;101274.78;1700985;83;25742;-80
2021/10/14 07:25:56;;;;;;;32.85;19.32;;;;;;;4.47;87.82;101280.53;1652660;83;27560;-80
2021/10/14 07:28:23;;;;;;;29.85;19.05;;;;;;;4.57;87.92;101283.59;1697891;82;25970;-80
2021/10/14 07:30:54;;;;;;;33.30;20.23;;;;;;;4.67;87.90;101283.63;1686402;83;25864;-80
2021/10/14 07:33:20;;;;;;;29.98;18.57;;;;;;;4.78;88.14;101285.34;1707322;83;26474;-80
2021/10/14 07:35:47;;;;;;;30.27;19.45;;;;;;;4.87;87.96;101286.73;1725708;82;25802;-80
2021/10/14 07:38:14;;;;;;;30.02;17.82;;;;;;;4.97;88.02;101286.75;1664997;84;28140;-79
2021/10/14 07:40:43;;;;;;;31.17;19.50;;;;;;;5.07;88.04;101283.67;1665262;82;26496;-79
2021/10/14 07:43:13;;;;;;;26.48;15.45;;;;;;;5.17;88.15;101278.73;1719134;82;25898;-79
2021/10/14 07:45:42;;;;;;;25.87;17.27;;;;;;;5.36;88.54;101280.11;1614041;85;25949;-79
2021/10/14 07:48:09;;;;;;;27.10;16.32;;;;;;;5.36;88.54;101280.11;1664224;84;25795;-80
2021/10/14 07:50:37;;;;;;;32.53;16.73;;;;;;;5.48;88.06;101282.14;1725652;82;27498;-79
2021/10/14 07:53:14;;;;;;;24.72;15.05;;;;;;;5.57;88.04;101278.67;1699593;83;25814;-79
2021/10/14 07:55:41;;;;;;;28.80;15.55;;;;;;;5.68;87.89;101280.35;1676230;83;25460;-79
2021/10/14 07:58:09;;;;;;;26.20;15.55;;;;;;;5.76;87.58;101281.82;1725710;81;25975;-79
2021/10/14 08:00:38;;;;;;;23.90;15.18;;;;;;;5.85;87.67;101277.03;1701799;81;25824;-79
2021/10/14 08:03:06;;;;;;;24.60;15.00;;;;;;;5.96;87.49;101280.89;1699848;83;28333;-80
2021/10/14 08:05:33;;;;;;;22.45;13.78;;;;;;;6.06;87.28;101276.39;1675174;83;25925;-79
2021/10/14 08:08:00;;;;;;;24.87;14.10;;;;;;;6.14;87.01;101282.69;1697149;83;25862;-79
2021/10/14 08:10:28;;;;;;;23.65;13.93;;;;;;;6.23;87.15;101277.86;1722739;82;25687;-79
2021/10/14 08:12:55;;;;;;;20.95;13.58;;;;;;;6.34;87.17;101274.19;1698315;83;25894;-80
2021/10/14 08:15:22;;;;;;;22.58;12.93;;;;;;;6.44;87.00;101268.34;1726186;81;28386;-79
2021/10/14 08:17:49;;;;;;;21.48;13.83;;;;;;;6.54;86.56;101270.52;1701675;82;25967;-79
2021/10/14 08:20:17;;;;;;;17.95;12.03;;;;;;;6.65;86.44;101270.83;1643515;84;25838;-79
2021/10/14 08:22:44;;;;;;;18.98;11.88;;;;;;;6.75;86.38;101269.81;1689204;82;26501;-79
2021/10/14 08:25:14;;;;;;;19.73;11.60;;;;;;;6.87;85.62;101261.13;1673996;83;25842;-79
2021/10/14 08:27:43;;;;;;;16.20;10.70;;;;;;;6.96;85.47;101265.58;1725677;81;27521;-79
2021/10/14 08:30:12;;;;;;;19.35;10.68;;;;;;;7.07;85.22;101264.06;1652676;83;25631;-80
2021/10/14 08:32:42;;;;;;;17.45;9.85;;;;;;;7.16;84.69;101263.66;1701383;83;25898;-80
2021/10/14 08:35:10;;;;;;;15.70;10.23;;;;;;;7.27;84.30;101262.13;1721580;82;25770;-79
2021/10/14 08:37:38;;;;;;;16.73;10.78;;;;;;;7.36;84.24;101259.39;1653311;83;25857;-80
2021/10/14 08:40:06;;;;;;;15.15;9.30;;;;;;;7.47;84.45;101257.01;1725750;81;27540;-80
2021/10/14 08:42:33;;;;;;;15.93;9.60;;;;;;;7.59;84.40;101243.82;1705691;82;25926;-80
2021/10/14 08:45:08;;;;;;;15.98;9.13;;;;;;;7.71;84.07;101241.27;1654945;83;25851;-80
2021/10/14 08:47:37;;;;;;;12.43;8.40;;;;;;;7.82;84.07;101239.70;1671075;83;26480;-79
2021/10/14 08:50:07;;;;;;;13.83;9.35;;;;;;;7.95;83.43;101231.30;1701408;82;25816;-80
2021/10/14 08:52:34;;;;;;;15.83;9.15;;;;;;;8.05;83.29;101235.55;1702716;83;27542;-80
2021/10/14 08:55:01;;;;;;;13.85;8.55;;;;;;;8.20;83.59;101232.66;1653312;82;25997;-80
2021/10/14 08:57:28;;;;;;;17.23;9.25;;;;;;;8.31;83.17;101235.12;1701674;82;25914;-80
2021/10/14 08:59:55;;;;;;;13.45;9.43;;;;;;;8.41;82.64;101235.84;1677813;83;25841;-80
2021/10/14 09:02:23;;;;;;;21.57;11.45;;;;;;;8.52;82.85;101229.39;1700399;83;26554;-80
2021/10/14 09:04:59;;;;;;;13.60;9.28;;;;;;;8.65;82.97;101230.30;1721259;81;27594;-80
2021/10/14 09:07:30;;;;;;;18.00;9.53;;;;;;;8.75;83.15;101233.67;1678228;82;25955;-80
2021/10/14 09:10:01;;;;;;;13.80;8.35;;;;;;;8.85;82.44;101230.41;1680552;83;25855;-81
2021/10/14 09:12:37;;;;;;;15.63;8.98;;;;;;;8.88;81.67;101225.58;1700098;82;25838;-80
2021/10/14 09:15:18;;;;;;;13.65;8.58;;;;;;;8.93;81.87;101229.10;1726826;81;25785;-80
2021/10/14 09:17:53;;;;;;;10.90;7.58;;;;;;;8.97;81.70;101227.28;1678258;83;28226;-79
2021/10/14 09:20:34;;;;;;;12.30;8.00;;;;;;;9.05;80.53;101221.97;1694504;83;25987;-79
2021/10/14 09:23:12;;;;;;;10.75;6.87;;;;;;;9.11;80.95;101225.32;1701125;83;25753;-80
2021/10/14 09:25:49;;;;;;;10.78;7.10;;;;;;;9.21;80.36;101217.18;1721379;82;25975;-79
2021/10/14 09:28:26;;;;;;;12.55;7.62;;;;;;;9.30;80.59;101218.89;1700415;82;25942;-79
2021/10/14 09:30:58;;;;;;;12.75;7.72;;;;;;;9.38;79.84;101213.55;1683297;83;28115;-79
2021/10/14 09:33:32;;;;;;;13.15;8.03;;;;;;;9.45;79.86;101211.05;1694009;81;25835;-79
2021/10/14 09:36:24;;;;;;;14.85;8.15;;;;;;;9.51;78.91;101209.05;1676297;83;25953;-80
2021/10/14 09:38:57;;;;;;;12.07;7.47;;;;;;;9.55;78.91;101209.90;1677431;83;26592;-79
2021/10/14 09:41:25;;;;;;;14.28;7.53;;;;;;;9.61;78.69;101208.39;1679065;83;25772;-80
2021/10/14 09:43:57;;;;;;;16.32;8.78;;;;;;;9.63;78.75;101209.91;1689658;83;28239;-80
2021/10/14 09:46:37;;;;;;;13.38;7.72;;;;;;;9.66;78.15;101203.39;1701841;81;25791;-80
2021/10/14 09:49:07;;;;;;;14.03;8.00;;;;;;;9.70;78.12;101196.70;1708571;83;25754;-80
2021/10/14 09:51:35;;;;;;;12.78;7.60;;;;;;;9.75;77.60;101197.05;1696637;82;26517;-80
2021/10/14 09:54:03;;;;;;;10.90;7.10;;;;;;;9.84;77.23;101194.69;1726701;81;25862;-80
2021/10/14 09:56:31;;;;;;;10.68;7.45;;;;;;;9.92;76.32;101188.83;1677557;83;28163;-79
2021/10/14 09:59:01;;;;;;;9.88;6.37;;;;;;;9.96;76.45;101198.72;1698450;83;25632;-81
2021/10/14 10:01:32;;;;;;;10.13;6.83;;;;;;;10.03;76.69;101196.52;1679536;83;26362;-79
2021/10/14 10:04:02;;;;;;;11.95;7.35;;;;;;;10.08;75.70;101196.86;1681189;83;25806;-80
2021/10/14 10:06:33;;;;;;;11.93;7.72;;;;;;;10.18;76.61;101198.56;1693698;83;25736;-80
2021/10/14 10:09:05;;;;;;;;;;;;;;;10.29;76.99;101193.67;1667423;83;28288;-80
2021/10/14 10:11:36;;;;;;;13.13;7.40;;;;;;;10.38;77.20;101193.16;1678383;83;25814;-80
2021/10/14 10:14:03;;;;;;;;;;;;;;;10.45;76.23;101194.98;1660096;83;26134;-80
2021/10/14 10:16:30;;;;;;;11.18;6.35;;;;;;;10.48;75.92;101187.09;1664576;83;26538;-80
2021/10/14 10:19:04;;;;;;;11.30;6.53;;;;;;;10.49;76.15;101184.27;1726319;81;25816;-79
2021/10/14 10:21:36;;;;;;;9.08;7.03;;;;;;;10.53;75.42;101189.61;1706063;82;28105;-80
2021/10/14 10:24:26;;;;;;;8.90;6.33;;;;;;;10.57;75.21;101186.06;1699711;83;25840;-80
2021/10/14 10:26:56;;;;;;;10.90;6.85;;;;;;;10.59;74.92;101179.53;1673738;83;26129;-80
2021/10/14 10:29:28;;;;;;;10.78;7.65;;;;;;;10.67;74.87;101186.20;1678697;83;26520;-80
2021/10/14 10:32:06;;;;;;;8.38;5.30;;;;;;;10.77;72.55;101176.63;1677294;83;26574;-80
2021/10/14 10:34:56;;;;;;;9.40;5.28;;;;;;;10.82;71.76;101175.08;1704251;83;27508;-81
2021/10/14 10:40:16;;;;;;;9.45;5.95;;;;;;;10.99;71.64;101166.98;1700613;83;25798;-80
2021/10/14 10:43:03;;;;;;;6.35;4.80;;;;;;;11.03;71.43;101158.91;1726596;81;25954;-80
2021/10/14 10:45:46;;;;;;;6.47;5.03;;;;;;;11.05;71.34;101155.05;1696596;81;25421;-80
2021/10/14 10:48:13;;;;;;;13.53;8.75;;;;;;;11.07;71.07;101147.66;1701207;83;27149;-80
2021/10/14 10:50:45;;;;;;;5.83;3.77;;;;;;;11.10;71.51;101139.25;1678285;83;25865;-80
2021/10/14 10:53:22;;;;;;;4.90;2.75;;;;;;;11.18;69.28;101143.75;1673052;83;25674;-80
2021/10/14 10:55:55;;;;;;;3.83;2.85;;;;;;;11.14;67.17;101135.20;1695312;83;25904;-80
2021/10/14 10:58:44;;;;;;;5.30;2.60;;;;;;;11.11;66.10;101137.41;1702426;82;25573;-79
2021/10/14 11:01:17;;;;;;;7.50;3.85;;;;;;;11.02;63.83;101140.64;1648525;85;27508;-80
2021/10/14 11:03:57;;;;;;;5.42;3.80;;;;;;;10.97;64.67;101139.52;1673172;81;25946;-81
2021/10/14 11:06:27;;;;;;;7.58;3.50;;;;;;;10.97;66.02;101138.18;1720610;81;26044;-80
2021/10/14 11:09:10;;;;;;;7.83;3.85;;;;;;;11.01;66.87;101128.77;1700365;83;25925;-80
2021/10/14 11:11:37;;;;;;;6.53;3.98;;;;;;;11.03;66.18;101132.95;1705766;82;25933;-81
2021/10/14 11:14:06;;;;;;;6.62;3.80;;;;;;;11.01;66.93;101130.11;1673528;83;27005;-80
2021/10/14 11:16:33;;;;;;;9.00;4.00;;;;;;;11.01;66.85;101129.61;1677574;83;26033;-82
2021/10/14 11:19:01;;;;;;;9.43;4.37;;;;;;;11.02;67.25;101121.88;1663705;83;26669;-80
2021/10/14 11:21:30;;;;;;;8.85;4.92;;;;;;;11.03;66.34;101124.91;1697686;83;27226;-80
2021/10/14 11:23:59;;;;;;;8.68;4.70;;;;;;;11.00;66.19;101124.41;1726218;81;26303;-81
2021/10/14 11:26:42;;;;;;;10.53;4.70;;;;;;;10.98;66.06;101119.23;1699889;82;27516;-80
2021/10/14 11:29:15;;;;;;;7.15;4.47;;;;;;;10.99;66.35;101120.08;1649490;83;25929;-80